Arlington, Massachusetts
Current Conditions -  °F | °C
As of 11:56 PM on Friday 21 Nov 2014 (Local Time) from KBED Reporting Station
Clear Clear  
Wind Chill: -10°   Ceiling: Unl
Heat Index: -4°   Visibility: 10mi
Dew Point: -15°   Wind: 10mph
Humidity: 44%   Direction: 260°W
Pressure: 30.41"   Gusts: NA
Location:  42.42°N, 71.16°W
Report Text: KBED 220456Z 26009KT 10SM CLR M04/M15 A3041 RMK AO2 SLP314 T10441150 400171050
Loading
Personal Weather Stations






























Interactive Weather Map New forecast layout! Learn more

10-Day Weather Forecast

Advertisements
Track Severe Weather on mobile